Camden, New Jersey
Current Conditions -  °F | °C
As of 9:54 PM on Saturday 22 Nov 2014 (Local Time) from KPHL Reporting Station
Broken Clouds Broken Clouds  
Wind Chill: 37°   Ceiling: 12000
Heat Index: 42°   Visibility: 10mi
Dew Point: 24°   Wind: 9mph
Humidity: 49%   Direction: 190°S
Pressure: 30.27"   Gusts: NA
Location:  39.95°N, 75.12°W
Report Text: KPHL 230254Z 19008KT 10SM BKN120 06/M04 A3027 RMK AO2 SLP248 T00561044 58013 $
Loading
Personal Weather Stations






























Interactive Weather Map New forecast layout! Learn more

10-Day Weather Forecast

Advertisements
Track Severe Weather on mobile